Daily Tabular Data
[Select Refresh to Update]


10/19/18
Time         Wind Dir   Wind Spd  Wind Gust     Hum In   Humidity    Temp In       Temp  Raw Barom   Tot Rain Wind Chill Heat Ix In Heat Index  Dew Point  DailyRain   HourRain   RainRate
                            mph        mph          %          %         F         F         in         in         F         F         F         F         in         in      in/hr
12:00am           180          1          2         36         38       76.3       65.0      29.15       0.60       65.0       75.9       64.8       38.8       0.00       0.00      0.000
12:30am           114          0          6         36         42       76.2       63.9      29.15       0.60       63.9       75.8       64.0       40.4       0.00       0.00      0.000
1:00am             37          0          3         36         42       76.1       63.7      29.15       0.60       63.7       75.7       63.8       40.2       0.00       0.00      0.000
1:30am            140          0          1         36         41       76.1       63.1      29.15       0.60       63.1       75.7       63.1       39.0       0.00       0.00      0.000
2:00am            173          0          2         36         40       76.0       63.8      29.15       0.60       63.8       75.6       63.7       39.0       0.00       0.00      0.000
2:30am            195          0          3         36         38       75.9       64.5      29.15       0.60       64.5       75.5       64.3       38.4       0.00       0.00      0.000
3:00am            170          0          2         35         40       75.8       63.0      29.14       0.60       63.0       75.3       62.9       38.3       0.00       0.00      0.000
3:30am            185          0          7         35         39       75.6       63.8      29.13       0.60       63.8       75.1       63.6       38.4       0.00       0.00      0.000
4:00am            175          1          4         35         33       75.5       66.4      29.13       0.60       66.4       75.0       65.8       36.4       0.00       0.00      0.000
4:30am            171          0          2         35         32       75.5       67.9      29.13       0.60       67.9       75.0       67.2       37.0       0.00       0.00      0.000
5:00am            112          0          4         35         28       75.4       70.4      29.14       0.60       70.4       74.9       69.5       35.8       0.00       0.00      0.000
5:30am            144          0          8         35         27       75.4       70.7      29.14       0.60       70.7       74.9       69.7       35.1       0.00       0.00      0.000
6:00am            152          0          2         35         28       75.3       70.6      29.14       0.60       70.6       74.8       69.7       35.9       0.00       0.00      0.000
6:30am            178          0          3         35         35       75.2       67.2      29.14       0.60       67.2       74.7       66.7       38.6       0.00       0.00      0.000
7:00am            117          0          2         35         37       75.1       66.8      29.15       0.60       66.8       74.6       66.5       39.7       0.00       0.00      0.000
7:30am            188          0          4         35         38       74.9       65.2      29.15       0.60       65.2       74.4       65.0       39.0       0.00       0.00      0.000
8:00am            194          0          3         35         30       74.8       71.1      29.16       0.60       71.1       74.3       70.3       38.1       0.00       0.00      0.000
8:30am            202          0          5         35         28       74.8       76.8      29.17       0.60       76.8       74.3       75.9       41.3       0.00       0.00      0.000
9:00am             40          0          0         33         28       75.4       77.7      29.17       0.60       77.7       74.8       76.8       42.0       0.00       0.00      0.000
9:30am             17          0          1         33         25       75.9       79.1      29.17       0.60       79.1       75.3       78.0       40.3       0.00       0.00      0.000
10:00am           284          0          1         30         23       78.4       80.7      29.17       0.60       80.7       77.6       79.2       39.5       0.00       0.00      0.000
10:30am           328          0          2         32         21       76.7       81.6      29.17       0.60       81.6       76.0       79.6       37.9       0.00       0.00      0.000
11:00am             9          0          4         32         20       76.1       83.0      29.16       0.60       83.0       75.4       80.6       37.8       0.00       0.00      0.000
11:30am           286          0          5         33         20       76.0       85.2      29.15       0.60       85.2       75.4       82.2       39.6       0.00       0.00      0.000
12:00pm           332          0          4         33         17       76.0       86.0      29.14       0.60       86.0       75.4       82.7       36.2       0.00       0.00      0.000
12:30pm           178          1          8         33         16       76.0       87.7      29.13       0.60       87.7       75.4       84.0       36.0       0.00       0.00      0.000
1:00pm            160         10         22         35         15       76.2       87.7      29.10       0.60       87.7       75.7       84.0       34.4       0.00       0.00      0.000
1:30pm            165          7         19         35         15       76.4       88.5      29.10       0.60       88.5       75.9       84.7       35.0       0.00       0.00      0.000
2:00pm            235          9         14         35         16       76.6       89.8      29.09       0.60       89.8       76.1       85.8       37.7       0.00       0.00      0.000
2:30pm            201          3         12         36         17       76.7       89.0      29.08       0.60       89.0       76.3       85.2       38.6       0.00       0.00      0.000
3:00pm            282          7         13         36         17       76.9       88.6      29.08       0.60       88.6       76.5       84.9       38.3       0.00       0.00      0.000
3:30pm            335          0          9         36         17       77.1       87.7      29.08       0.60       87.7       76.7       84.1       37.5       0.00       0.00      0.000
4:00pm            339          1          9         36         18       77.2       86.5      29.08       0.60       86.5       76.8       83.1       38.0       0.00       0.00      0.000
4:30pm             11          9         12         36         18       77.4       84.3      29.07       0.60       84.3       77.0       81.4       36.2       0.00       0.00      0.000
5:00pm            342          4         12         36         19       77.5       83.0      29.07       0.60       83.0       77.1       80.5       36.5       0.00       0.00      0.000
5:30pm            349          3         13         37         20       77.6       82.7      29.07       0.60       82.7       77.3       80.3       37.6       0.00       0.00      0.000
6:00pm             18          3          8         37         22       77.6       80.1      29.08       0.60       80.1       77.3       78.8       37.9       0.00       0.00      0.000
6:30pm             19          0          9         37         24       77.7       77.7      29.09       0.60       77.7       77.4       76.5       38.1       0.00       0.00      0.000
7:00pm            297          0          6         37         31       77.7       75.8      29.09       0.60       75.8       77.4       75.1       43.0       0.00       0.00      0.000
7:30pm             15          1          4         37         28       77.8       75.1      29.10       0.60       75.1       77.5       74.2       39.8       0.00       0.00      0.000
8:00pm             81          1          4         37         31       77.8       73.2      29.10       0.60       73.2       77.5       72.5       40.8       0.00       0.00      0.000
8:30pm            155          0          2         37         28       77.7       74.4      29.10       0.60       74.4       77.4       73.5       39.2       0.00       0.00      0.000
9:00pm            169          0          2         37         27       77.7       73.3      29.10       0.60       73.3       77.4       72.3       37.3       0.00       0.00      0.000
9:30pm            109          2          3         37         23       77.6       74.9      29.11       0.60       74.9       77.3       73.7       34.6       0.00       0.00      0.000
10:00pm           182          0          4         37         27       77.6       72.4      29.11       0.60       72.4       77.3       71.4       36.6       0.00       0.00      0.000
10:30pm           133          0          3         36         25       77.6       72.5      29.12       0.60       72.5       77.2       71.4       34.7       0.00       0.00      0.000
11:00pm           169          0          2         36         26       77.5       71.9      29.12       0.60       71.9       77.1       70.8       35.2       0.00       0.00      0.000
11:30pm           165          0          1         36         27       77.4       70.9      29.11       0.60       70.9       77.0       69.9       35.3       0.00       0.00      0.000